| time (UTC) | temp F | wind direction | speed MPH | gust MPH | rain 1hr in | rain 24hr in | rain mn in | humidity % | barometer mb |
| 20260902155008 | 86 | 205 | 7.0 | 7.0 | 0.00 | 0.00 | 0.00 | 74 | 1017.0 |
| 20260902154503 | 85 | 172 | 3.0 | 5.0 | 0.00 | 0.00 | 0.00 | 75 | 1016.7 |
| 20260902153958 | 85 | 207 | 3.0 | 8.0 | 0.00 | 0.00 | 0.00 | 76 | 1016.8 |
| 20260902153455 | 85 | 155 | 2.0 | 5.0 | 0.00 | 0.00 | 0.00 | 75 | 1017.0 |
| 20260902152951 | 85 | 219 | 3.0 | 6.0 | 0.00 | 0.00 | 0.00 | 75 | 1017.1 |
| 20260902152442 | 84 | 178 | 3.0 | 6.0 | 0.00 | 0.00 | 0.00 | 76 | 1016.9 |
| 20260902151937 | 85 | 190 | 3.0 | 7.0 | 0.00 | 0.00 | 0.00 | 76 | 1017.1 |
| 20260902151433 | 84 | 157 | 3.0 | 5.0 | 0.00 | 0.00 | 0.00 | 77 | 1016.9 |
| 20260902150932 | 84 | 180 | 3.0 | 6.0 | 0.00 | 0.00 | 0.00 | 80 | 1016.8 |
| 20260902150429 | 83 | 165 | 5.0 | 7.0 | 0.00 | 0.00 | 0.00 | 77 | 1016.9 |
| 20260902145928 | 83 | 223 | 3.0 | 6.0 | 0.00 | 0.00 | 0.00 | 78 | 1016.7 |
| 20260902145424 | 83 | 214 | 2.0 | 5.0 | 0.00 | 0.00 | 0.00 | 80 | 1017.1 |
| 20260902144919 | 83 | 221 | 2.0 | 5.0 | 0.00 | 0.00 | 0.00 | 79 | 1017.2 |
| 20260902144415 | 82 | 240 | 3.0 | 6.0 | 0.00 | 0.00 | 0.00 | 79 | 1017.4 |
| 20260902143914 | 82 | 229 | 2.0 | 5.0 | 0.00 | 0.00 | 0.00 | 81 | 1017.2 |
| 20260902143410 | 81 | 206 | 2.0 | 7.0 | 0.00 | 0.00 | 0.00 | 81 | 1017.1 |
| 20260902142905 | 81 | 183 | 3.0 | 7.0 | 0.00 | 0.00 | 0.00 | 81 | 1017.3 |
| 20260902142401 | 81 | 187 | 3.0 | 6.0 | 0.00 | 0.00 | 0.00 | 81 | 1017.2 |
| 20260902141856 | 81 | 239 | 1.0 | 5.0 | 0.00 | 0.00 | 0.00 | 82 | 1017.2 |
| 20260902141352 | 81 | 235 | 4.0 | 5.0 | 0.00 | 0.00 | 0.00 | 84 | 1017.1 |
| 20260902140851 | 80 | 196 | 2.0 | 6.0 | 0.00 | 0.00 | 0.00 | 84 | 1017.3 |
| 20260902140346 | 80 | 204 | 3.0 | 4.0 | 0.00 | 0.00 | 0.00 | 84 | 1017.3 |
| 20260902135846 | 80 | 220 | 3.0 | 5.0 | 0.00 | 0.00 | 0.00 | 84 | 1017.2 |
| 20260902135342 | 80 | 196 | 3.0 | 4.0 | 0.00 | 0.00 | 0.00 | 85 | 1017.2 |
| 20260902134841 | 80 | 198 | 4.0 | 5.0 | 0.00 | 0.00 | 0.00 | 84 | 1017.5 |
| 20260902134336 | 80 | 223 | 3.0 | 5.0 | 0.00 | 0.00 | 0.00 | 83 | 1017.5 |
| 20260902133831 | 80 | 204 | 7.0 | 11.0 | 0.00 | 0.00 | 0.00 | 82 | 1017.5 |
| 20260902133331 | 80 | 196 | 5.0 | 6.0 | 0.00 | 0.00 | 0.00 | 82 | 1017.6 |
| 20260902132826 | 79 | 203 | 4.0 | 7.0 | 0.00 | 0.00 | 0.00 | 84 | 1017.6 |
| 20260902132321 | 79 | 218 | 4.0 | 5.0 | 0.00 | 0.00 | 0.00 | 84 | 1017.8 |
| 20260902131817 | 78 | 235 | 0.0 | 6.0 | 0.00 | 0.00 | 0.00 | 86 | 1017.8 |
| 20260902131308 | 77 | 215 | 2.0 | 4.0 | 0.00 | 0.00 | 0.00 | 87 | 1017.6 |
| 20260902130808 | 77 | 321 | 0.0 | 2.0 | 0.00 | 0.00 | 0.00 | 87 | 1017.7 |
| 20260902130303 | 77 | 234 | 0.0 | 5.0 | 0.00 | 0.00 | 0.00 | 88 | 1018.1 |
| 20260902125758 | 77 | 5 | 3.0 | 6.0 | 0.00 | 0.00 | 0.00 | 87 | 1017.8 |
| 20260902125254 | 77 | 208 | 2.0 | 5.0 | 0.00 | 0.00 | 0.00 | 86 | 1017.7 |
| 20260902124750 | 77 | 295 | 5.0 | 9.0 | 0.00 | 0.00 | 0.00 | 86 | 1018.1 |
| 20260902124246 | 78 | 210 | 4.0 | 7.0 | 0.00 | 0.00 | 0.00 | 86 | 1017.5 |
| 20260902123741 | 78 | 262 | 18.0 | 19.0 | 0.00 | 0.00 | 0.00 | 85 | 1018.0 |
| 20260902123237 | 78 | 236 | 0.0 | 5.0 | 0.00 | 0.00 | 0.00 | 84 | 1016.9 |
| 20260902122735 | 78 | 176 | 3.0 | 6.0 | 0.00 | 0.00 | 0.00 | 84 | 1017.0 |
| 20260902122232 | 78 | 183 | 4.0 | 5.0 | 0.00 | 0.00 | 0.00 | 84 | 1016.9 |
| 20260902121731 | 77 | 161 | 2.0 | 9.0 | 0.00 | 0.00 | 0.00 | 85 | 1017.0 |
| 20260902121226 | 77 | 175 | 3.0 | 5.0 | 0.00 | 0.00 | 0.00 | 86 | 1017.0 |
| 20260902120722 | 77 | 129 | 3.0 | 7.0 | 0.00 | 0.00 | 0.00 | 86 | 1017.0 |
| 20260902120218 | 77 | 171 | 1.0 | 5.0 | 0.00 | 0.00 | 0.00 | 87 | 1016.8 |
| 20260902115718 | 76 | 187 | 2.0 | 5.0 | 0.00 | 0.00 | 0.00 | 87 | 1016.7 |
| 20260902115214 | 76 | 175 | 5.0 | 9.0 | 0.00 | 0.00 | 0.00 | 87 | 1016.7 |
| 20260902114710 | 76 | 199 | 3.0 | 6.0 | 0.00 | 0.00 | 0.00 | 88 | 1016.8 |
| 20260902114206 | 76 | 164 | 2.0 | 5.0 | 0.00 | 0.00 | 0.00 | 88 | 1016.7 |
| 20260902113701 | 76 | 157 | 3.0 | 6.0 | 0.00 | 0.00 | 0.00 | 88 | 1016.4 |
| 20260902113155 | 76 | 155 | 3.0 | 5.0 | 0.00 | 0.00 | 0.00 | 88 | 1016.6 |
| 20260902112650 | 76 | 188 | 3.0 | 6.0 | 0.00 | 0.00 | 0.00 | 88 | 1016.6 |
| 20260902112147 | 76 | 143 | 3.0 | 7.0 | 0.00 | 0.00 | 0.00 | 88 | 1016.3 |
| 20260902111648 | 76 | 168 | 1.0 | 3.0 | 0.00 | 0.00 | 0.00 | 88 | 1016.8 |
| 20260902111143 | 76 | 179 | 3.0 | 6.0 | 0.00 | 0.00 | 0.00 | 88 | 1016.7 |
| 20260902110639 | 76 | 178 | 3.0 | 5.0 | 0.00 | 0.00 | 0.00 | 88 | 1016.4 |
| 20260902110135 | 76 | 150 | 3.0 | 4.0 | 0.00 | 0.00 | 0.00 | 88 | 1016.6 |
| 20260902105634 | 76 | 167 | 4.0 | 6.0 | 0.00 | 0.00 | 0.00 | 88 | 1016.3 |
| 20260902105130 | 76 | 166 | 1.0 | 7.0 | 0.00 | 0.00 | 0.00 | 88 | 1016.9 |
| 20260902104625 | 77 | 181 | 4.0 | 7.0 | 0.00 | 0.00 | 0.00 | 88 | 1016.8 |
| 20260902104120 | 76 | 192 | 2.0 | 5.0 | 0.00 | 0.00 | 0.00 | 89 | 1016.6 |
| 20260902103620 | 77 | 191 | 3.0 | 7.0 | 0.00 | 0.00 | 0.00 | 89 | 1016.8 |
| 20260902103115 | 76 | 194 | 2.0 | 7.0 | 0.00 | 0.00 | 0.00 | 89 | 1016.9 |
| 20260902102611 | 76 | 202 | 7.0 | 7.0 | 0.00 | 0.00 | 0.00 | 89 | 1016.8 |
| 20260902102109 | 76 | 188 | 3.0 | 5.0 | 0.00 | 0.00 | 0.00 | 89 | 1016.8 |
| 20260902101603 | 76 | 193 | 2.0 | 6.0 | 0.00 | 0.00 | 0.00 | 90 | 1016.8 |
| 20260902101103 | 76 | 150 | 4.0 | 5.0 | 0.00 | 0.00 | 0.00 | 90 | 1016.9 |
| 20260902100557 | 76 | 155 | 4.0 | 4.0 | 0.00 | 0.00 | 0.00 | 91 | 1016.8 |
| 20260902100052 | 76 | 175 | 2.0 | 4.0 | 0.00 | 0.00 | 0.00 | 91 | 1016.9 |
| 20260902095546 | 76 | 224 | 2.0 | 5.0 | 0.00 | 0.00 | 0.00 | 91 | 1017.0 |
| 20260902095045 | 76 | 155 | 2.0 | 4.0 | 0.00 | 0.00 | 0.00 | 91 | 1017.0 |
| 20260902094541 | 76 | 193 | 4.0 | 6.0 | 0.00 | 0.00 | 0.00 | 91 | 1017.0 |
| 20260902094036 | 76 | 204 | 2.0 | 7.0 | 0.00 | 0.00 | 0.00 | 91 | 1016.9 |
| 20260902093531 | 76 | 158 | 2.0 | 4.0 | 0.00 | 0.00 | 0.00 | 91 | 1016.9 |
| 20260902093031 | 76 | 202 | 2.0 | 5.0 | 0.00 | 0.00 | 0.00 | 91 | 1016.9 |
| 20260902092526 | 76 | 183 | 3.0 | 5.0 | 0.00 | 0.00 | 0.00 | 91 | 1016.8 |
| 20260902092021 | 76 | 176 | 3.0 | 3.0 | 0.00 | 0.00 | 0.00 | 92 | 1016.8 |
| 20260902091516 | 76 | 183 | 2.0 | 4.0 | 0.00 | 0.00 | 0.00 | 92 | 1017.1 |
| 20260902091012 | 76 | 193 | 2.0 | 3.0 | 0.00 | 0.00 | 0.00 | 92 | 1016.9 |
| 20260902090508 | 76 | 196 | 3.0 | 4.0 | 0.00 | 0.00 | 0.00 | 93 | 1017.1 |
| 20260902090007 | 76 | 201 | 1.0 | 4.0 | 0.00 | 0.00 | 0.00 | 93 | 1017.1 |
| 20260902085502 | 75 | 181 | 1.0 | 4.0 | 0.00 | 0.00 | 0.00 | 93 | 1016.8 |
| 20260902084956 | 75 | 187 | 0.0 | 3.0 | 0.00 | 0.00 | 0.00 | 94 | 1016.8 |
| 20260902084453 | 76 | 189 | 2.0 | 2.0 | 0.00 | 0.00 | 0.00 | 94 | 1016.8 |
| 20260902083948 | 76 | 189 | 2.0 | 3.0 | 0.00 | 0.00 | 0.00 | 94 | 1016.7 |
| 20260902083448 | 76 | 168 | 0.0 | 3.0 | 0.00 | 0.00 | 0.00 | 94 | 1016.7 |
| 20260902082943 | 76 | 133 | 1.0 | 3.0 | 0.00 | 0.00 | 0.00 | 94 | 1016.6 |
| 20260902082439 | 76 | 169 | 1.0 | 2.0 | 0.00 | 0.00 | 0.00 | 94 | 1016.7 |
| 20260902081935 | 76 | 183 | 0.0 | 3.0 | 0.00 | 0.00 | 0.00 | 94 | 1016.6 |
| 20260902081431 | 76 | 171 | 3.0 | 4.0 | 0.00 | 0.00 | 0.00 | 95 | 1016.6 |
| 20260902080926 | 76 | 187 | 1.0 | 3.0 | 0.00 | 0.00 | 0.00 | 95 | 1016.7 |
| 20260902080422 | 76 | 177 | 1.0 | 5.0 | 0.00 | 0.00 | 0.00 | 95 | 1016.8 |
| 20260902075922 | 76 | 159 | 2.0 | 2.0 | 0.00 | 0.00 | 0.00 | 95 | 1016.9 |
| 20260902075418 | 76 | 167 | 2.0 | 4.0 | 0.00 | 0.00 | 0.00 | 95 | 1016.8 |
| 20260902074913 | 75 | 165 | 2.0 | 4.0 | 0.00 | 0.00 | 0.00 | 96 | 1016.6 |
| 20260902074409 | 75 | 173 | 1.0 | 2.0 | 0.00 | 0.00 | 0.00 | 96 | 1016.4 |
| 20260902073903 | 75 | 130 | 2.0 | 2.0 | 0.00 | 0.00 | 0.00 | 97 | 1016.8 |
| 20260902073400 | 75 | 195 | 0.0 | 1.0 | 0.00 | 0.00 | 0.00 | 96 | 1016.6 |
| 20260902072855 | 75 | 180 | 0.0 | 1.0 | 0.00 | 0.00 | 0.00 | 96 | 1016.9 |
| 20260902072351 | 76 | 188 | 1.0 | 2.0 | 0.00 | 0.00 | 0.00 | 95 | 1016.6 |
| 20260902071847 | 76 | 177 | 1.0 | 2.0 | 0.00 | 0.00 | 0.00 | 95 | 1016.6 |
| 20260902071347 | 76 | 215 | 0.0 | 2.0 | 0.00 | 0.00 | 0.00 | 95 | 1016.9 |
| 20260902070843 | 76 | 170 | 0.0 | 2.0 | 0.00 | 0.00 | 0.00 | 95 | 1016.6 |
| 20260902070338 | 76 | 181 | 0.0 | 2.0 | 0.00 | 0.00 | 0.00 | 96 | 1016.6 |
| 20260902065836 | 75 | 155 | 0.0 | 2.0 | 0.00 | 0.00 | 0.00 | 96 | 1016.3 |
| 20260902065332 | 75 | 136 | 0.0 | 2.0 | 0.00 | 0.00 | 0.00 | 95 | 1016.3 |
| 20260902064827 | 76 | 152 | 1.0 | 1.0 | 0.00 | 0.00 | 0.00 | 95 | 1016.8 |
| 20260902064324 | 76 | 122 | 0.0 | 2.0 | 0.00 | 0.00 | 0.00 | 94 | 1016.7 |
| 20260902063819 | 77 | 141 | 2.0 | 2.0 | 0.00 | 0.00 | 0.00 | 94 | 1016.8 |
| 20260902063318 | 77 | 164 | 0.0 | 1.0 | 0.00 | 0.00 | 0.00 | 93 | 1017.0 |
| 20260902062813 | 77 | 168 | 0.0 | 2.0 | 0.00 | 0.00 | 0.00 | 92 | 1016.9 |
| 20260902062308 | 77 | 217 | 0.0 | 2.0 | 0.00 | 0.00 | 0.00 | 92 | 1017.0 |
| 20260902061808 | 78 | 191 | 1.0 | 2.0 | 0.00 | 0.00 | 0.00 | 92 | 1016.9 |
| 20260902061303 | 78 | 114 | 0.0 | 2.0 | 0.00 | 0.00 | 0.00 | 91 | 1017.1 |
| 20260902060759 | 78 | 184 | 2.0 | 3.0 | 0.00 | 0.00 | 0.00 | 92 | 1016.9 |
| 20260902060254 | 78 | 213 | 0.0 | 1.0 | 0.00 | 0.00 | 0.00 | 91 | 1016.7 |
| 20260902055749 | 78 | 157 | 0.0 | 2.0 | 0.00 | 0.00 | 0.00 | 90 | 1016.6 |
| 20260902055241 | 79 | 217 | 2.0 | 3.0 | 0.00 | 0.00 | 0.00 | 90 | 1017.0 |
| 20260902054740 | 79 | 183 | 3.0 | 4.0 | 0.00 | 0.00 | 0.00 | 90 | 1016.6 |
| 20260902054231 | 79 | 206 | 2.0 | 4.0 | 0.00 | 0.00 | 0.00 | 90 | 1016.6 |
| 20260902053726 | 79 | 193 | 2.0 | 3.0 | 0.00 | 0.00 | 0.00 | 90 | 1016.6 |
| 20260902053226 | 79 | 156 | 1.0 | 5.0 | 0.00 | 0.00 | 0.00 | 89 | 1016.7 |
| 20260902052725 | 79 | 229 | 1.0 | 4.0 | 0.00 | 0.00 | 0.00 | 89 | 1016.6 |
| 20260902052221 | 79 | 186 | 2.0 | 4.0 | 0.00 | 0.00 | 0.00 | 89 | 1016.6 |
| 20260902051720 | 80 | 218 | 3.0 | 6.0 | 0.00 | 0.00 | 0.00 | 89 | 1016.7 |
| 20260902051215 | 80 | 186 | 0.0 | 4.0 | 0.00 | 0.00 | 0.00 | 89 | 1016.4 |
| 20260902050709 | 80 | 170 | 2.0 | 5.0 | 0.00 | 0.00 | 0.00 | 88 | 1016.6 |
| 20260902050205 | 80 | 154 | 0.0 | 3.0 | 0.00 | 0.00 | 0.00 | 88 | 1016.7 |
| 20260902045704 | 80 | 150 | 2.0 | 7.0 | 0.00 | 0.01 | 0.01 | 88 | 1016.6 |
| 20260902045201 | 80 | 178 | 4.0 | 6.0 | 0.00 | 0.01 | 0.01 | 88 | 1016.6 |
| 20260902044656 | 80 | 173 | 2.0 | 5.0 | 0.00 | 0.01 | 0.01 | 88 | 1016.8 |
| 20260902044152 | 80 | 185 | 2.0 | 7.0 | 0.00 | 0.01 | 0.01 | 88 | 1016.7 |
| 20260902043647 | 80 | 191 | 3.0 | 8.0 | 0.00 | 0.01 | 0.01 | 88 | 1016.4 |
| 20260902043142 | 80 | 175 | 1.0 | 3.0 | 0.00 | 0.01 | 0.01 | 89 | 1016.6 |
| 20260902042641 | 80 | 165 | 5.0 | 7.0 | 0.00 | 0.01 | 0.01 | 88 | 1016.6 |
| 20260902042137 | 81 | 207 | 6.0 | 8.0 | 0.00 | 0.01 | 0.01 | 88 | 1016.6 |
| 20260902041636 | 81 | 166 | 2.0 | 5.0 | 0.00 | 0.01 | 0.01 | 88 | 1016.6 |
| 20260902041131 | 81 | 165 | 4.0 | 5.0 | 0.00 | 0.01 | 0.01 | 88 | 1016.4 |
| 20260902040630 | 81 | 215 | 4.0 | 7.0 | 0.00 | 0.01 | 0.01 | 87 | 1016.7 |
| 20260902040126 | 82 | 198 | 2.0 | 5.0 | 0.00 | 0.01 | 0.01 | 87 | 1016.6 |
| 20260902035624 | 82 | 169 | 4.0 | 6.0 | 0.00 | 0.01 | 0.01 | 87 | 1016.4 |
| 20260902035120 | 82 | 219 | 3.0 | 8.0 | 0.00 | 0.01 | 0.01 | 87 | 1016.7 |
| 20260902034619 | 82 | 180 | 2.0 | 6.0 | 0.00 | 0.01 | 0.01 | 87 | 1016.8 |
| 20260902034113 | 82 | 199 | 2.0 | 5.0 | 0.00 | 0.01 | 0.01 | 87 | 1016.7 |
| 20260902033612 | 82 | 152 | 4.0 | 5.0 | 0.00 | 0.01 | 0.01 | 87 | 1016.6 |
| 20260902033107 | 82 | 200 | 4.0 | 7.0 | 0.00 | 0.01 | 0.01 | 87 | 1016.6 |
| 20260902032606 | 82 | 211 | 6.0 | 7.0 | 0.00 | 0.01 | 0.01 | 87 | 1016.4 |
| 20260902032101 | 82 | 208 | 4.0 | 6.0 | 0.00 | 0.01 | 0.01 | 87 | 1016.8 |
| 20260902031555 | 82 | 194 | 2.0 | 5.0 | 0.00 | 0.01 | 0.01 | 87 | 1016.8 |
| 20260902031051 | 82 | 193 | 4.0 | 5.0 | 0.00 | 0.01 | 0.01 | 87 | 1016.8 |
| 20260902030546 | 83 | 226 | 1.0 | 3.0 | 0.00 | 0.01 | 0.01 | 86 | 1016.9 |
| 20260902030045 | 83 | 150 | 3.0 | 5.0 | 0.00 | 0.01 | 0.01 | 86 | 1017.0 |
| 20260902025540 | 83 | 219 | 5.0 | 7.0 | 0.00 | 0.01 | 0.01 | 85 | 1017.0 |
| 20260902025035 | 83 | 188 | 3.0 | 7.0 | 0.00 | 0.01 | 0.01 | 85 | 1017.0 |
| 20260902024531 | 83 | 178 | 4.0 | 6.0 | 0.00 | 0.01 | 0.01 | 85 | 1016.8 |
| 20260902024031 | 83 | 226 | 4.0 | 7.0 | 0.00 | 0.01 | 0.01 | 85 | 1016.8 |
| 20260902023527 | 83 | 204 | 6.0 | 6.0 | 0.00 | 0.01 | 0.01 | 85 | 1016.9 |
| 20260902023021 | 84 | 180 | 3.0 | 6.0 | 0.00 | 0.01 | 0.01 | 85 | 1016.8 |
| 20260902022516 | 84 | 208 | 4.0 | 5.0 | 0.00 | 0.01 | 0.01 | 84 | 1016.6 |
| 20260902022012 | 84 | 208 | 2.0 | 6.0 | 0.00 | 0.01 | 0.01 | 84 | 1016.9 |
| 20260902021507 | 84 | 183 | 1.0 | 5.0 | 0.00 | 0.01 | 0.01 | 83 | 1016.6 |
| 20260902021002 | 84 | 198 | 2.0 | 4.0 | 0.00 | 0.01 | 0.01 | 83 | 1016.8 |
| 20260902020458 | 84 | 196 | 3.0 | 6.0 | 0.00 | 0.01 | 0.01 | 83 | 1016.7 |
| 20260902015953 | 84 | 186 | 5.0 | 9.0 | 0.00 | 0.01 | 0.01 | 83 | 1016.8 |
| 20260902015449 | 84 | 190 | 1.0 | 5.0 | 0.00 | 0.01 | 0.01 | 84 | 1016.7 |
| 20260902014944 | 84 | 190 | 4.0 | 7.0 | 0.00 | 0.01 | 0.01 | 84 | 1016.6 |
| 20260902014441 | 85 | 206 | 4.0 | 5.0 | 0.00 | 0.01 | 0.01 | 84 | 1016.7 |
| 20260902013940 | 85 | 214 | 2.0 | 4.0 | 0.00 | 0.01 | 0.01 | 84 | 1016.4 |
| 20260902013436 | 85 | 211 | 4.0 | 6.0 | 0.00 | 0.01 | 0.01 | 84 | 1016.6 |
| 20260902012931 | 84 | 212 | 2.0 | 6.0 | 0.00 | 0.01 | 0.01 | 84 | 1016.2 |
| 20260902012426 | 84 | 193 | 4.0 | 7.0 | 0.00 | 0.01 | 0.01 | 85 | 1016.2 |
| 20260902011922 | 84 | 142 | 2.0 | 4.0 | 0.00 | 0.01 | 0.01 | 85 | 1016.1 |
| 20260902011416 | 84 | 146 | 2.0 | 4.0 | 0.00 | 0.01 | 0.01 | 85 | 1015.9 |
| 20260902010916 | 85 | 179 | 3.0 | 5.0 | 0.00 | 0.01 | 0.01 | 85 | 1015.7 |
| 20260902010411 | 85 | 171 | 2.0 | 4.0 | 0.00 | 0.01 | 0.01 | 84 | 1015.9 |
| 20260902005911 | 85 | 167 | 2.0 | 3.0 | 0.00 | 0.01 | 0.01 | 84 | 1015.7 |
| 20260902005410 | 85 | 170 | 2.0 | 5.0 | 0.00 | 0.01 | 0.01 | 84 | 1015.8 |
| 20260902004906 | 86 | 148 | 0.0 | 5.0 | 0.00 | 0.01 | 0.01 | 84 | 1015.6 |
| 20260902004406 | 86 | 173 | 4.0 | 6.0 | 0.00 | 0.01 | 0.01 | 83 | 1015.5 |
| 20260902003901 | 86 | 169 | 1.0 | 5.0 | 0.00 | 0.01 | 0.01 | 83 | 1015.6 |
| 20260902003401 | 86 | 211 | 3.0 | 3.0 | 0.00 | 0.01 | 0.01 | 82 | 1015.6 |
| 20260902002857 | 87 | 180 | 3.0 | 5.0 | 0.00 | 0.01 | 0.01 | 82 | 1015.6 |
| 20260902002356 | 87 | 174 | 2.0 | 6.0 | 0.00 | 0.01 | 0.01 | 81 | 1015.8 |
| 20260902001851 | 87 | 189 | 2.0 | 5.0 | 0.00 | 0.01 | 0.01 | 82 | 1015.6 |
| 20260902001346 | 87 | 162 | 2.0 | 6.0 | 0.00 | 0.01 | 0.01 | 81 | 1015.6 |
| 20260902000841 | 87 | 177 | 1.0 | 5.0 | 0.00 | 0.01 | 0.01 | 80 | 1015.5 |
| 20260902000337 | 88 | 164 | 3.0 | 7.0 | 0.00 | 0.01 | 0.01 | 81 | 1015.7 |
| 20260901235832 | 88 | 151 | 4.0 | 5.0 | 0.00 | 0.01 | 0.01 | 80 | 1015.7 |
| 20260901235331 | 88 | 184 | 4.0 | 7.0 | 0.00 | 0.01 | 0.01 | 79 | 1015.7 |
| 20260901234826 | 89 | 182 | 5.0 | 8.0 | 0.00 | 0.01 | 0.01 | 79 | 1015.8 |
| 20260901234322 | 89 | 178 | 2.0 | 6.0 | 0.00 | 0.01 | 0.01 | 80 | 1015.7 |
| 20260901233815 | 89 | 180 | 3.0 | 9.0 | 0.00 | 0.01 | 0.01 | 80 | 1015.7 |
| 20260901233311 | 89 | 154 | 6.0 | 8.0 | 0.00 | 0.01 | 0.01 | 79 | 1015.9 |
| 20260901232806 | 89 | 150 | 7.0 | 10.0 | 0.00 | 0.01 | 0.01 | 79 | 1015.6 |
| 20260901232255 | 90 | 165 | 5.0 | 8.0 | 0.00 | 0.01 | 0.01 | 77 | 1015.8 |
| 20260901231751 | 91 | 152 | 4.0 | 7.0 | 0.00 | 0.01 | 0.01 | 76 | 1015.9 |
| 20260901231242 | 91 | 149 | 3.0 | 6.0 | 0.00 | 0.01 | 0.01 | 74 | 1015.7 |
| 20260901230738 | 91 | 181 | 2.0 | 4.0 | 0.00 | 0.01 | 0.01 | 72 | 1015.8 |
| 20260901230237 | 91 | 179 | 3.0 | 8.0 | 0.00 | 0.01 | 0.01 | 71 | 1015.6 |
| 20260901225733 | 92 | 188 | 8.0 | 9.0 | 0.00 | 0.01 | 0.01 | 73 | 1015.8 |
| 20260901225227 | 92 | 188 | 3.0 | 3.0 | 0.00 | 0.01 | 0.01 | 73 | 1015.9 |
| 20260901224723 | 92 | 175 | 3.0 | 6.0 | 0.00 | 0.01 | 0.01 | 73 | 1015.9 |
| 20260901224219 | 92 | 181 | 3.0 | 5.0 | 0.00 | 0.01 | 0.01 | 73 | 1016.0 |
| 20260901223714 | 91 | 138 | 4.0 | 9.0 | 0.00 | 0.01 | 0.01 | 73 | 1016.1 |
| 20260901223209 | 92 | 138 | 5.0 | 6.0 | 0.00 | 0.01 | 0.01 | 71 | 1015.9 |
| 20260901222706 | 92 | 181 | 2.0 | 5.0 | 0.00 | 0.01 | 0.01 | 72 | 1016.0 |
| 20260901222202 | 91 | 165 | 5.0 | 6.0 | 0.00 | 0.01 | 0.01 | 72 | 1016.0 |
| 20260901221657 | 91 | 175 | 3.0 | 5.0 | 0.00 | 0.01 | 0.01 | 73 | 1015.9 |
| 20260901221153 | 91 | 146 | 2.0 | 8.0 | 0.00 | 0.01 | 0.01 | 72 | 1016.0 |
| 20260901220652 | 91 | 161 | 5.0 | 6.0 | 0.00 | 0.01 | 0.01 | 72 | 1016.0 |
| 20260901220152 | 91 | 178 | 1.0 | 6.0 | 0.00 | 0.01 | 0.01 | 72 | 1016.0 |
| 20260901215650 | 92 | 171 | 3.0 | 8.0 | 0.00 | 0.01 | 0.01 | 70 | 1015.9 |
| 20260901215145 | 93 | 145 | 3.0 | 6.0 | 0.00 | 0.01 | 0.01 | 69 | 1016.1 |
| 20260901214642 | 93 | 174 | 5.0 | 7.0 | 0.00 | 0.01 | 0.01 | 69 | 1015.8 |
| 20260901214143 | 93 | 178 | 4.0 | 7.0 | 0.00 | 0.01 | 0.01 | 67 | 1015.9 |
| 20260901213637 | 94 | 147 | 3.0 | 4.0 | 0.00 | 0.01 | 0.01 | 67 | 1016.0 |
| 20260901213132 | 92 | 159 | 3.0 | 4.0 | 0.00 | 0.01 | 0.01 | 68 | 1016.0 |
| 20260901212631 | 92 | 140 | 4.0 | 7.0 | 0.00 | 0.01 | 0.01 | 68 | 1016.0 |
| 20260901212127 | 93 | 173 | 6.0 | 7.0 | 0.00 | 0.01 | 0.01 | 66 | 1016.1 |
| 20260901211622 | 93 | 180 | 5.0 | 7.0 | 0.00 | 0.01 | 0.01 | 66 | 1016.1 |
| 20260901211119 | 93 | 167 | 3.0 | 10.0 | 0.00 | 0.01 | 0.01 | 66 | 1016.2 |
| 20260901210614 | 92 | 215 | 6.0 | 10.0 | 0.00 | 0.01 | 0.01 | 65 | 1016.3 |
| 20260901210110 | 93 | 181 | 6.0 | 11.0 | 0.00 | 0.01 | 0.01 | 64 | 1016.1 |
| 20260901205605 | 93 | 216 | 5.0 | 8.0 | 0.00 | 0.01 | 0.01 | 65 | 1016.2 |
| 20260901205059 | 92 | 190 | 6.0 | 15.0 | 0.00 | 0.01 | 0.01 | 65 | 1016.1 |
| 20260901204556 | 93 | 123 | 4.0 | 12.0 | 0.00 | 0.01 | 0.01 | 67 | 1016.1 |
| 20260901204050 | 92 | 207 | 4.0 | 10.0 | 0.00 | 0.01 | 0.01 | 68 | 1016.2 |
| 20260901203545 | 93 | 192 | 5.0 | 9.0 | 0.00 | 0.01 | 0.01 | 65 | 1016.3 |
| 20260901203040 | 92 | 137 | 2.0 | 9.0 | 0.00 | 0.01 | 0.01 | 68 | 1016.3 |
| 20260901202534 | 92 | 222 | 5.0 | 14.0 | 0.00 | 0.01 | 0.01 | 65 | 1016.3 |
| 20260901202031 | 93 | 201 | 3.0 | 9.0 | 0.00 | 0.01 | 0.01 | 65 | 1016.3 |
| 20260901201526 | 92 | 170 | 3.0 | 7.0 | 0.00 | 0.01 | 0.01 | 66 | 1016.1 |
| 20260901201025 | 92 | 193 | 8.0 | 8.0 | 0.00 | 0.01 | 0.01 | 66 | 1016.3 |
| 20260901200525 | 92 | 193 | 4.0 | 10.0 | 0.00 | 0.01 | 0.01 | 66 | 1016.4 |
| 20260901200020 | 92 | 204 | 6.0 | 9.0 | 0.00 | 0.01 | 0.01 | 67 | 1016.3 |
| 20260901195517 | 92 | 181 | 2.0 | 7.0 | 0.00 | 0.01 | 0.01 | 69 | 1016.6 |
| 20260901195017 | 92 | 206 | 2.0 | 11.0 | 0.00 | 0.01 | 0.01 | 68 | 1016.7 |
| 20260901194512 | 92 | 169 | 4.0 | 8.0 | 0.00 | 0.01 | 0.01 | 67 | 1016.6 |
| 20260901194008 | 92 | 166 | 4.0 | 7.0 | 0.00 | 0.01 | 0.01 | 68 | 1016.7 |
| 20260901193508 | 92 | 169 | 2.0 | 6.0 | 0.00 | 0.01 | 0.01 | 69 | 1016.7 |
| 20260901193008 | 92 | 163 | 3.0 | 8.0 | 0.00 | 0.01 | 0.01 | 71 | 1016.8 |
| 20260901192503 | 91 | 192 | 7.0 | 9.0 | 0.00 | 0.01 | 0.01 | 69 | 1016.7 |
| 20260901191959 | 91 | 188 | 8.0 | 8.0 | 0.00 | 0.01 | 0.01 | 70 | 1016.7 |
| 20260901191454 | 90 | 151 | 7.0 | 11.0 | 0.00 | 0.01 | 0.01 | 69 | 1016.8 |
| 20260901190950 | 90 | 170 | 4.0 | 10.0 | 0.00 | 0.01 | 0.01 | 71 | 1016.8 |
| 20260901190445 | 91 | 213 | 3.0 | 9.0 | 0.00 | 0.01 | 0.01 | 75 | 1016.8 |
| 20260901185943 | 90 | 204 | 5.0 | 12.0 | 0.00 | 0.01 | 0.01 | 74 | 1016.6 |
| 20260901185438 | 90 | 159 | 5.0 | 10.0 | 0.00 | 0.01 | 0.01 | 75 | 1016.6 |
| 20260901184937 | 90 | 163 | 6.0 | 7.0 | 0.00 | 0.01 | 0.01 | 73 | 1016.7 |
| 20260901184432 | 89 | 198 | 4.0 | 10.0 | 0.00 | 0.01 | 0.01 | 76 | 1016.8 |
| 20260901183928 | 89 | 179 | 3.0 | 6.0 | 0.00 | 0.01 | 0.01 | 78 | 1016.9 |
| 20260901183427 | 89 | 195 | 10.0 | 10.0 | 0.00 | 0.01 | 0.01 | 77 | 1016.7 |
| 20260901182923 | 88 | 158 | 3.0 | 11.0 | 0.00 | 0.01 | 0.01 | 81 | 1016.8 |
| 20260901182419 | 88 | 181 | 5.0 | 13.0 | 0.00 | 0.01 | 0.01 | 80 | 1017.0 |
| 20260901181914 | 88 | 145 | 6.0 | 15.0 | 0.00 | 0.01 | 0.01 | 81 | 1016.9 |
| 20260901181408 | 88 | 208 | 6.0 | 9.0 | 0.00 | 0.01 | 0.01 | 82 | 1016.7 |
| 20260901180906 | 88 | 201 | 14.0 | 14.0 | 0.00 | 0.01 | 0.01 | 82 | 1017.0 |
| 20260901180401 | 87 | 139 | 7.0 | 12.0 | 0.00 | 0.01 | 0.01 | 83 | 1016.9 |
| 20260901175859 | 87 | 142 | 3.0 | 9.0 | 0.00 | 0.01 | 0.01 | 83 | 1017.1 |
| 20260901175354 | 87 | 171 | 3.0 | 10.0 | 0.00 | 0.01 | 0.01 | 86 | 1017.0 |
| 20260901174849 | 86 | 198 | 7.0 | 9.0 | 0.00 | 0.01 | 0.01 | 85 | 1016.9 |
| 20260901174345 | 86 | 172 | 3.0 | 8.0 | 0.00 | 0.01 | 0.01 | 86 | 1017.2 |
| 20260901173841 | 86 | 182 | 5.0 | 10.0 | 0.00 | 0.01 | 0.01 | 85 | 1017.2 |
| 20260901173335 | 86 | 157 | 5.0 | 7.0 | 0.00 | 0.01 | 0.01 | 86 | 1017.2 |
| 20260901172832 | 84 | 181 | 2.0 | 6.0 | 0.00 | 0.01 | 0.01 | 89 | 1017.4 |
| 20260901172331 | 84 | 201 | 1.0 | 6.0 | 0.00 | 0.01 | 0.01 | 89 | 1017.4 |
| 20260901171829 | 84 | 190 | 5.0 | 7.0 | 0.00 | 0.01 | 0.01 | 87 | 1017.6 |
| 20260901171329 | 84 | 204 | 8.0 | 9.0 | 0.00 | 0.01 | 0.01 | 87 | 1017.4 |
| 20260901170828 | 84 | 192 | 4.0 | 7.0 | 0.00 | 0.01 | 0.01 | 89 | 1017.6 |
| 20260901170323 | 83 | 190 | 2.0 | 7.0 | 0.00 | 0.01 | 0.01 | 91 | 1017.4 |
| 20260901165821 | 83 | 138 | 4.0 | 8.0 | 0.00 | 0.01 | 0.01 | 92 | 1017.4 |
| 20260901165316 | 84 | 195 | 4.0 | 8.0 | 0.00 | 0.01 | 0.01 | 90 | 1017.7 |
| 20260901164813 | 84 | 189 | 5.0 | 6.0 | 0.00 | 0.01 | 0.01 | 88 | 1017.4 |
| 20260901164308 | 83 | 194 | 4.0 | 5.0 | 0.00 | 0.01 | 0.01 | 92 | 1017.6 |
| 20260901163802 | 82 | 195 | 2.0 | 3.0 | 0.00 | 0.01 | 0.01 | 92 | 1017.5 |
| 20260901163257 | 82 | 199 | 4.0 | 6.0 | 0.00 | 0.01 | 0.01 | 92 | 1017.8 |
| 20260901162752 | 83 | 147 | 5.0 | 8.0 | 0.00 | 0.01 | 0.01 | 91 | 1018.0 |
| 20260901162251 | 83 | 181 | 3.0 | 7.0 | 0.00 | 0.01 | 0.01 | 91 | 1018.0 |
| 20260901161750 | 83 | 253 | 1.0 | 4.0 | 0.02 | 0.01 | 0.01 | 92 | 1018.0 |
| 20260901161244 | 83 | 178 | 0.0 | 3.0 | 0.05 | 0.01 | 0.01 | 92 | 1017.7 |
| 20260901160741 | 83 | 161 | 3.0 | 5.0 | 0.02 | 0.00 | 0.00 | 90 | 1017.8 |
| 20260901160237 | 84 | 184 | 1.0 | 8.0 | 0.00 | 0.00 | 0.00 | 88 | 1017.7 |
| 20260901155735 | 85 | 151 | 1.0 | 7.0 | 0.00 | 0.00 | 0.00 | 87 | 1017.9 |
| 20260901155230 | 83 | 238 | 3.0 | 5.0 | 0.00 | 0.00 | 0.00 | 88 | 1017.4 |